TimeCDT,TemperatureF,Dew PointF,Humidity,Sea Level PressureIn,VisibilityMPH,Wind Direction,Wind SpeedMPH,Gust SpeedMPH,PrecipitationIn,Events,Conditions,WindDirDegrees,DateUTC
12:15 AM,65.3,61.9,89,30.16,5.0,South,17.3,-,N/A,,Overcast,170,2013-08-17 05:15:00
12:35 AM,65.5,61.9,88,30.17,5.0,South,12.7,-,N/A,,Overcast,170,2013-08-17 05:35:00
12:55 AM,65.5,61.7,88,30.17,5.0,South,16.1,23.0,N/A,,Overcast,170,2013-08-17 05:55:00
1:15 AM,65.5,61.7,88,30.17,5.0,South,15.0,19.6,N/A,,Overcast,170,2013-08-17 06:15:00
1:35 AM,65.7,61.9,88,30.16,5.0,South,11.5,18.4,N/A,,Overcast,170,2013-08-17 06:35:00
1:55 AM,65.7,62.1,88,30.16,5.0,South,15.0,-,N/A,,Overcast,180,2013-08-17 06:55:00
2:15 AM,65.8,62.2,88,30.15,7.0,South,13.8,21.9,N/A,,Overcast,180,2013-08-17 07:15:00
2:35 AM,65.8,62.4,89,30.15,5.0,South,11.5,19.6,N/A,,Overcast,180,2013-08-17 07:35:00
2:55 AM,66.2,62.6,88,30.14,7.0,South,12.7,20.7,N/A,,Overcast,180,2013-08-17 07:55:00
3:15 AM,66.7,62.2,85,30.14,10.0,South,15.0,20.7,N/A,,Overcast,190,2013-08-17 08:15:00
3:35 AM,67.1,62.2,84,30.14,10.0,South,13.8,19.6,N/A,,Overcast,180,2013-08-17 08:35:00
3:55 AM,67.1,62.2,84,30.14,10.0,South,12.7,18.4,N/A,,Overcast,180,2013-08-17 08:55:00
4:15 AM,67.1,62.4,85,30.14,10.0,South,11.5,18.4,N/A,,Overcast,180,2013-08-17 09:15:00
4:35 AM,67.1,62.2,84,30.13,10.0,South,12.7,-,N/A,,Overcast,180,2013-08-17 09:35:00
4:55 AM,67.1,62.2,84,30.13,10.0,South,12.7,-,N/A,,Overcast,180,2013-08-17 09:55:00
5:15 AM,67.1,62.4,85,30.12,10.0,South,13.8,-,N/A,,Overcast,180,2013-08-17 10:15:00
5:35 AM,67.1,62.6,85,30.11,10.0,South,13.8,-,N/A,,Overcast,190,2013-08-17 10:35:00
5:55 AM,66.6,62.6,87,30.11,7.0,South,11.5,-,N/A,,Overcast,190,2013-08-17 10:55:00
6:15 AM,66.4,62.6,88,30.12,7.0,South,13.8,17.3,N/A,,Overcast,190,2013-08-17 11:15:00
6:35 AM,66.4,62.8,88,30.13,5.0,South,11.5,-,N/A,,Overcast,190,2013-08-17 11:35:00
6:55 AM,66.2,63.0,89,30.13,5.0,South,9.2,12.7,N/A,,Overcast,190,2013-08-17 11:55:00
7:15 AM,66.2,63.1,90,30.13,2.0,South,12.7,-,N/A,,Overcast,180,2013-08-17 12:15:00
7:35 AM,66.2,63.1,90,30.14,2.0,South,12.7,-,N/A,,Overcast,190,2013-08-17 12:35:00
7:55 AM,66.2,63.5,91,30.13,3.0,South,9.2,-,N/A,,Overcast,180,2013-08-17 12:55:00
8:15 AM,66.6,63.5,90,30.13,3.0,South,8.1,-,N/A,,Overcast,170,2013-08-17 13:15:00
8:35 AM,66.7,63.7,90,30.14,3.0,SSE,9.2,-,N/A,,Overcast,160,2013-08-17 13:35:00
8:55 AM,66.7,63.7,90,30.13,2.5,South,10.4,-,N/A,,Overcast,170,2013-08-17 13:55:00
9:15 AM,67.1,63.7,89,30.14,3.0,SSE,9.2,-,N/A,,Overcast,160,2013-08-17 14:15:00
9:35 AM,67.5,63.7,88,30.14,5.0,South,12.7,-,N/A,,Overcast,170,2013-08-17 14:35:00
9:55 AM,68.2,63.5,85,30.14,7.0,South,11.5,-,N/A,,Overcast,170,2013-08-17 14:55:00
10:15 AM,69.1,63.9,83,30.14,10.0,South,11.5,-,N/A,,Overcast,180,2013-08-17 15:15:00
10:35 AM,69.8,63.9,81,30.13,10.0,South,11.5,-,N/A,,Overcast,170,2013-08-17 15:35:00
10:55 AM,70.0,64.2,82,30.14,10.0,South,10.4,-,N/A,,Overcast,170,2013-08-17 15:55:00
11:15 AM,70.9,64.0,79,30.13,10.0,South,12.7,16.1,N/A,,Overcast,180,2013-08-17 16:15:00
11:35 AM,71.2,64.0,78,30.13,10.0,South,12.7,17.3,N/A,,Overcast,170,2013-08-17 16:35:00
11:55 AM,71.8,64.2,77,30.13,10.0,South,12.7,-,N/A,,Overcast,170,2013-08-17 16:55:00
12:15 PM,73.0,64.2,74,30.13,10.0,South,11.5,-,N/A,,Overcast,180,2013-08-17 17:15:00
12:35 PM,74.5,64.2,70,30.13,10.0,South,13.8,17.3,N/A,,Overcast,170,2013-08-17 17:35:00
12:55 PM,74.5,63.7,69,30.12,10.0,South,13.8,-,N/A,,Overcast,180,2013-08-17 17:55:00
1:15 PM,75.7,64.0,67,30.11,10.0,SSE,13.8,-,N/A,,Overcast,160,2013-08-17 18:15:00
1:35 PM,76.1,63.0,64,30.10,10.0,South,11.5,17.3,N/A,,Mostly Cloudy,190,2013-08-17 18:35:00
1:55 PM,76.5,62.8,62,30.10,10.0,South,13.8,20.7,N/A,,Mostly Cloudy,190,2013-08-17 18:55:00
2:15 PM,77.7,62.4,59,30.10,10.0,SSE,16.1,19.6,N/A,,Overcast,160,2013-08-17 19:15:00
2:35 PM,77.5,62.6,60,30.10,10.0,South,13.8,19.6,N/A,,Mostly Cloudy,170,2013-08-17 19:35:00
2:55 PM,78.4,62.4,58,30.09,10.0,South,15.0,19.6,N/A,,Mostly Cloudy,170,2013-08-17 19:55:00
3:15 PM,78.1,62.1,58,30.09,10.0,South,15.0,20.7,N/A,,Mostly Cloudy,190,2013-08-17 20:15:00
3:35 PM,78.4,61.7,56,30.08,10.0,SSE,15.0,21.9,N/A,,Mostly Cloudy,160,2013-08-17 20:35:00
3:55 PM,78.4,61.5,56,30.07,10.0,South,15.0,21.9,N/A,,Scattered Clouds,190,2013-08-17 20:55:00
4:15 PM,79.3,61.7,55,30.07,10.0,South,15.0,20.7,N/A,,Scattered Clouds,170,2013-08-17 21:15:00
4:35 PM,79.2,62.1,56,30.07,10.0,South,15.0,23.0,N/A,,Scattered Clouds,170,2013-08-17 21:35:00
4:55 PM,79.5,61.7,54,30.07,10.0,South,17.3,20.7,N/A,,Scattered Clouds,180,2013-08-17 21:55:00
5:15 PM,79.5,61.9,55,30.06,10.0,South,16.1,-,N/A,,Scattered Clouds,170,2013-08-17 22:15:00
5:35 PM,79.0,62.1,56,30.07,10.0,SSE,16.1,-,N/A,,Scattered Clouds,160,2013-08-17 22:35:00
5:55 PM,77.4,62.2,59,30.07,10.0,South,17.3,-,N/A,,Scattered Clouds,170,2013-08-17 22:55:00
6:15 PM,76.5,62.6,62,30.06,10.0,SSE,13.8,-,N/A,,Scattered Clouds,160,2013-08-17 23:15:00
6:35 PM,76.3,62.8,63,30.06,10.0,South,19.6,-,N/A,,Scattered Clouds,170,2013-08-17 23:35:00
6:55 PM,76.1,63.5,65,30.07,10.0,SSE,13.8,21.9,N/A,,Mostly Cloudy,160,2013-08-17 23:55:00
7:15 PM,75.7,63.5,66,30.06,10.0,SSE,13.8,18.4,N/A,,Mostly Cloudy,150,2013-08-18 00:15:00
7:35 PM,74.7,63.5,68,30.07,10.0,SSE,10.4,-,N/A,,Mostly Cloudy,160,2013-08-18 00:35:00
7:55 PM,74.1,63.1,68,30.07,10.0,SSE,12.7,19.6,N/A,,Scattered Clouds,160,2013-08-18 00:55:00
8:15 PM,73.4,63.7,71,30.07,10.0,SSE,10.4,16.1,N/A,,Scattered Clouds,160,2013-08-18 01:15:00
8:35 PM,72.0,63.9,76,30.07,10.0,SSE,9.2,-,N/A,,Mostly Cloudy,150,2013-08-18 01:35:00
8:55 PM,72.0,63.9,76,30.07,10.0,SSE,9.2,-,N/A,,Overcast,150,2013-08-18 01:55:00
9:15 PM,71.1,63.9,78,30.08,10.0,SSE,10.4,-,N/A,,Scattered Clouds,150,2013-08-18 02:15:00
9:35 PM,70.2,63.7,80,30.08,10.0,SSE,10.4,-,N/A,,Clear,150,2013-08-18 02:35:00
9:55 PM,69.8,63.9,81,30.09,10.0,SSE,9.2,-,N/A,,Clear,150,2013-08-18 02:55:00
10:15 PM,69.3,63.7,82,30.09,10.0,SSE,10.4,-,N/A,,Clear,160,2013-08-18 03:15:00
10:35 PM,69.1,63.5,82,30.09,10.0,SSE,9.2,-,N/A,,Clear,160,2013-08-18 03:35:00
10:55 PM,68.7,63.0,82,30.09,10.0,SSE,8.1,-,N/A,,Clear,150,2013-08-18 03:55:00
11:15 PM,68.0,63.0,84,30.10,10.0,SSE,8.1,-,N/A,,Clear,150,2013-08-18 04:15:00
11:35 PM,68.2,63.0,83,30.10,10.0,SSE,10.4,-,N/A,,Clear,160,2013-08-18 04:35:00
11:55 PM,68.0,62.8,83,30.10,10.0,SSE,10.4,-,N/A,,Clear,160,2013-08-18 04:55:00